createdAt,value
2023-04-22T00:01:17.524Z,5.68
2023-04-22T00:03:45.067Z,6.10
2023-04-22T00:06:12.518Z,5.85
2023-04-22T00:08:39.823Z,5.80
2023-04-22T00:11:06.920Z,5.32
2023-04-22T00:13:34.136Z,4.75
2023-04-22T00:16:01.377Z,4.60
2023-04-22T00:18:28.552Z,4.90
2023-04-22T00:20:55.941Z,4.55
2023-04-22T00:23:22.983Z,4.70
2023-04-22T00:25:50.099Z,4.57
2023-04-22T00:28:17.259Z,4.55
2023-04-22T00:30:44.384Z,5.40
2023-04-22T00:33:11.496Z,4.88
2023-04-22T00:35:38.672Z,5.32
2023-04-22T00:38:05.761Z,6.35
2023-04-22T00:40:32.967Z,7.28
2023-04-22T00:43:01.038Z,7.70
2023-04-22T00:45:28.088Z,6.93
2023-04-22T00:47:56.498Z,7.60
2023-04-22T00:50:23.703Z,6.70
2023-04-22T00:52:51.003Z,6.63
2023-04-22T00:55:18.188Z,7.07
2023-04-22T00:57:45.503Z,6.40
2023-04-22T01:00:13.574Z,6.15
2023-04-22T01:02:41.106Z,5.47
2023-04-22T01:05:12.008Z,5.72
2023-04-22T01:07:39.655Z,6.03
2023-04-22T01:10:07.490Z,5.88
2023-04-22T01:12:34.945Z,5.57
2023-04-22T01:15:04.636Z,6.05
2023-04-22T01:17:34.039Z,5.40
2023-04-22T01:20:01.894Z,5.55
2023-04-22T01:22:36.292Z,5.10
2023-04-22T01:25:04.212Z,5.10
2023-04-22T01:27:31.606Z,4.85
2023-04-22T01:29:58.860Z,5.35
2023-04-22T01:32:26.253Z,5.30
2023-04-22T01:34:53.599Z,5.28
2023-04-22T01:37:20.831Z,4.63
2023-04-22T01:39:48.495Z,5.63
2023-04-22T01:42:16.037Z,5.03
2023-04-22T01:44:43.341Z,5.00
2023-04-22T01:47:10.816Z,5.20
2023-04-22T01:49:38.352Z,5.15
2023-04-22T01:52:05.982Z,5.03
2023-04-22T01:54:33.698Z,4.85
2023-04-22T01:57:01.070Z,5.60
2023-04-22T01:59:28.521Z,5.10
2023-04-22T02:01:55.990Z,5.20
2023-04-22T02:04:23.212Z,5.20
2023-04-22T02:06:50.526Z,4.90
2023-04-22T02:09:17.646Z,4.60
2023-04-22T02:11:44.888Z,4.85
2023-04-22T02:14:12.636Z,4.72
2023-04-22T02:16:41.855Z,4.40
2023-04-22T02:19:09.063Z,4.28
2023-04-22T02:21:36.333Z,4.80
2023-04-22T02:24:03.972Z,4.00
2023-04-22T02:26:31.022Z,3.95
2023-04-22T02:28:58.803Z,3.65
2023-04-22T02:31:27.263Z,3.50
2023-04-22T02:33:54.722Z,2.90
2023-04-22T02:36:21.884Z,2.90
2023-04-22T02:38:49.418Z,3.85
2023-04-22T02:41:16.530Z,3.30
2023-04-22T02:43:46.332Z,3.00
2023-04-22T02:46:16.408Z,3.35
2023-04-22T02:48:43.812Z,3.35
2023-04-22T02:51:11.465Z,3.33
2023-04-22T02:53:38.790Z,4.13
2023-04-22T02:56:06.498Z,3.55
2023-04-22T02:58:33.799Z,3.42
2023-04-22T03:01:01.304Z,3.97
2023-04-22T03:03:28.675Z,4.45
2023-04-22T03:05:56.178Z,4.03
2023-04-22T03:08:23.899Z,4.97
2023-04-22T03:10:51.049Z,4.95
2023-04-22T03:13:18.249Z,4.65
2023-04-22T03:15:45.953Z,4.20
2023-04-22T03:18:13.189Z,4.68
2023-04-22T03:20:40.758Z,3.97
2023-04-22T03:23:09.092Z,3.85
2023-04-22T03:25:37.269Z,4.60
2023-04-22T03:28:05.297Z,4.10
2023-04-22T03:30:32.602Z,3.90
2023-04-22T03:32:59.740Z,3.72
2023-04-22T03:35:38.260Z,3.70
2023-04-22T03:38:05.585Z,3.90
2023-04-22T03:40:35.230Z,4.43
2023-04-22T03:43:07.835Z,4.68
2023-04-22T03:45:35.692Z,4.50
2023-04-22T03:48:20.046Z,4.80
2023-04-22T03:50:50.867Z,4.63
2023-04-22T03:53:18.047Z,3.60
2023-04-22T03:55:45.435Z,3.90
2023-04-22T03:58:14.770Z,3.30
2023-04-22T04:00:42.177Z,3.45
2023-04-22T04:03:15.811Z,3.38
2023-04-22T04:05:44.130Z,2.90
2023-04-22T04:08:11.342Z,3.30
2023-04-22T04:10:38.535Z,3.30
2023-04-22T04:13:06.186Z,3.10
2023-04-22T04:15:43.779Z,3.53
2023-04-22T04:18:12.128Z,3.90
2023-04-22T04:20:39.282Z,4.93
2023-04-22T04:23:06.581Z,5.90
2023-04-22T04:25:38.513Z,6.25
2023-04-22T04:28:15.607Z,6.43
2023-04-22T04:30:42.759Z,6.53
2023-04-22T04:33:12.481Z,6.93
2023-04-22T04:35:43.549Z,7.03
2023-04-22T04:38:14.593Z,6.35
2023-04-22T04:40:43.847Z,7.25
2023-04-22T04:43:20.700Z,6.72
2023-04-22T04:45:53.781Z,6.97
2023-04-22T04:48:28.044Z,7.10
2023-04-22T04:51:02.018Z,7.70
2023-04-22T04:53:32.999Z,6.15
2023-04-22T04:56:00.500Z,6.60
2023-04-22T04:58:28.769Z,6.05
2023-04-22T05:01:19.277Z,6.22
2023-04-22T05:03:48.144Z,6.30
2023-04-22T05:06:17.808Z,7.70
2023-04-22T05:08:50.114Z,7.38
2023-04-22T05:11:17.228Z,6.90
2023-04-22T05:13:47.741Z,5.90
2023-04-22T05:16:21.229Z,6.65
2023-04-22T05:18:50.113Z,7.63
2023-04-22T05:21:17.729Z,7.60
2023-04-22T05:23:45.761Z,7.20
2023-04-22T05:26:14.432Z,6.63
2023-04-22T05:28:43.331Z,7.28
2023-04-22T05:31:10.624Z,7.55
2023-04-22T05:33:38.086Z,7.90
2023-04-22T05:36:06.488Z,7.30
2023-04-22T05:38:35.655Z,7.80
2023-04-22T05:41:02.831Z,7.68
2023-04-22T05:43:31.430Z,7.03
2023-04-22T05:46:08.115Z,8.50
2023-04-22T05:48:38.269Z,7.43
2023-04-22T05:51:09.254Z,7.95
2023-04-22T05:53:36.758Z,7.30
2023-04-22T05:56:04.245Z,7.10
2023-04-22T05:58:31.419Z,7.32
2023-04-22T06:01:02.753Z,7.20
2023-04-22T06:03:57.589Z,7.28
2023-04-22T06:06:26.196Z,7.75
2023-04-22T06:08:53.367Z,7.05
2023-04-22T06:11:20.911Z,7.00
2023-04-22T06:13:48.015Z,8.18
2023-04-22T06:16:16.162Z,6.70
2023-04-22T06:18:46.114Z,6.85
2023-04-22T06:21:14.270Z,7.10
2023-04-22T06:23:41.383Z,6.70
2023-04-22T06:26:09.117Z,7.40
2023-04-22T06:28:37.469Z,6.43
2023-04-22T06:31:18.152Z,5.47
2023-04-22T06:33:46.922Z,6.57
2023-04-22T06:36:14.704Z,6.93
2023-04-22T06:38:44.572Z,7.18
2023-04-22T06:41:33.118Z,5.85
2023-04-22T06:44:06.154Z,7.10
2023-04-22T06:47:08.151Z,6.60
2023-04-22T06:49:58.225Z,5.15
2023-04-22T06:52:33.890Z,6.78
2023-04-22T06:55:03.819Z,6.45
2023-04-22T06:57:31.148Z,6.13
2023-04-22T06:59:58.457Z,4.13
2023-04-22T07:02:27.338Z,3.30
2023-04-22T07:04:54.595Z,4.43
2023-04-22T07:07:21.670Z,4.13
2023-04-22T07:09:49.320Z,4.90
2023-04-22T07:12:16.548Z,4.60
2023-04-22T07:14:49.340Z,5.25
2023-04-22T07:19:46.647Z,5.07
2023-04-22T07:22:13.936Z,4.53
2023-04-22T07:24:41.173Z,4.53
2023-04-22T07:27:08.304Z,4.80
2023-04-22T07:29:35.623Z,5.18
2023-04-22T07:32:02.839Z,4.35
2023-04-22T07:34:29.959Z,4.47
2023-04-22T07:36:57.101Z,4.40
2023-04-22T07:39:24.488Z,4.63
2023-04-22T07:41:51.770Z,4.78
2023-04-22T07:44:21.771Z,4.60
2023-04-22T07:46:49.257Z,4.60
2023-04-22T07:49:17.393Z,5.03
2023-04-22T07:51:45.244Z,4.28
2023-04-22T07:54:12.493Z,4.03
2023-04-22T07:56:40.184Z,4.13
2023-04-22T07:59:07.320Z,4.15
2023-04-22T08:01:34.581Z,3.88
2023-04-22T08:04:02.024Z,3.60
2023-04-22T08:06:29.465Z,3.50
2023-04-22T08:08:56.626Z,3.65
2023-04-22T08:11:23.922Z,3.20
2023-04-22T08:13:51.267Z,3.47
2023-04-22T08:16:19.295Z,3.72
2023-04-22T08:18:46.558Z,3.60
2023-04-22T08:21:14.675Z,3.47
2023-04-22T08:23:41.760Z,3.70
2023-04-22T08:26:10.364Z,4.25
2023-04-22T08:28:37.715Z,3.40
2023-04-22T08:31:05.026Z,3.55
2023-04-22T08:33:32.280Z,4.50
2023-04-22T08:35:59.458Z,3.80
2023-04-22T08:38:26.787Z,4.20
2023-04-22T08:40:56.939Z,4.55
2023-04-22T08:43:26.287Z,4.95
2023-04-22T08:45:53.559Z,4.53
2023-04-22T08:48:20.687Z,5.28
2023-04-22T08:50:48.628Z,4.80
2023-04-22T08:53:16.088Z,5.65
2023-04-22T08:55:45.203Z,5.10
2023-04-22T08:58:13.073Z,6.00
2023-04-22T09:00:43.421Z,5.38
2023-04-22T09:03:11.852Z,4.93
2023-04-22T09:05:41.087Z,4.95
2023-04-22T09:08:08.377Z,4.68
2023-04-22T09:10:39.358Z,4.95
2023-04-22T09:13:07.516Z,5.07
2023-04-22T09:15:34.698Z,4.65
2023-04-22T09:18:04.612Z,5.13
2023-04-22T09:20:32.242Z,4.88
2023-04-22T09:23:05.172Z,10.18
2023-04-22T09:25:34.585Z,5.07
2023-04-22T09:28:02.317Z,5.00
2023-04-22T09:30:32.025Z,5.15
2023-04-22T09:33:01.403Z,5.55
2023-04-22T09:35:31.319Z,4.53
2023-04-22T09:38:00.157Z,4.70
2023-04-22T09:40:27.816Z,4.45
2023-04-22T09:42:57.341Z,3.67
2023-04-22T09:45:41.784Z,3.30
2023-04-22T09:48:10.476Z,2.80
2023-04-22T09:50:39.515Z,3.00
2023-04-22T09:53:10.019Z,3.20
2023-04-22T09:55:45.883Z,4.03
2023-04-22T09:58:15.299Z,2.65
2023-04-22T10:00:45.205Z,2.70
2023-04-22T10:03:12.817Z,3.17
2023-04-22T10:05:41.445Z,2.80
2023-04-22T10:08:10.574Z,3.00
2023-04-22T10:10:38.622Z,2.58
2023-04-22T10:13:06.933Z,2.90
2023-04-22T10:15:48.807Z,2.70
2023-04-22T10:18:26.170Z,2.70
2023-04-22T10:20:56.400Z,3.00
2023-04-22T10:23:25.223Z,3.00
2023-04-22T10:25:56.938Z,3.95
2023-04-22T10:28:28.110Z,2.85
2023-04-22T10:30:55.518Z,3.25
2023-04-22T10:33:28.815Z,3.70
2023-04-22T10:36:20.755Z,3.72
2023-04-22T10:38:50.876Z,3.17
2023-04-22T10:41:23.625Z,4.32
2023-04-22T10:44:01.809Z,3.25
2023-04-22T10:46:32.905Z,3.47
2023-04-22T10:49:07.364Z,3.67
2023-04-22T10:51:44.680Z,3.60
2023-04-22T10:54:28.748Z,3.53
2023-04-22T10:57:09.908Z,3.38
2023-04-22T10:59:53.334Z,3.00
2023-04-22T11:02:22.085Z,3.10
2023-04-22T11:04:50.044Z,2.70
2023-04-22T11:07:30.901Z,3.00
2023-04-22T11:10:07.203Z,3.45
2023-04-22T11:12:39.845Z,3.72
2023-04-22T11:15:14.218Z,3.60
2023-04-22T11:17:50.499Z,4.13
2023-04-22T11:20:18.459Z,4.38
2023-04-22T11:22:54.296Z,3.85
2023-04-22T11:25:23.288Z,3.50
2023-04-22T11:27:50.465Z,4.32
2023-04-22T11:30:20.357Z,3.70
2023-04-22T11:32:55.393Z,4.30
2023-04-22T11:35:34.214Z,5.32
2023-04-22T11:38:02.437Z,4.28
2023-04-22T11:40:34.455Z,4.78
2023-04-22T11:43:05.340Z,3.63
2023-04-22T11:45:35.474Z,4.28
2023-04-22T11:48:04.719Z,3.72
2023-04-22T11:50:34.706Z,3.90
2023-04-22T11:53:04.373Z,3.80
2023-04-22T11:55:34.171Z,4.40
2023-04-22T11:58:19.613Z,4.07
2023-04-22T12:00:49.031Z,4.47
2023-04-22T12:03:30.040Z,5.30
2023-04-22T12:06:00.582Z,4.47
2023-04-22T12:08:43.252Z,4.93
2023-04-22T12:11:12.578Z,4.40
2023-04-22T12:13:42.945Z,4.53
2023-04-22T12:16:12.929Z,4.28
2023-04-22T12:18:58.276Z,3.97
2023-04-22T12:21:28.619Z,4.05
2023-04-22T12:24:00.159Z,3.75
2023-04-22T12:26:28.600Z,4.07
2023-04-22T12:28:58.289Z,3.95
2023-04-22T12:31:25.750Z,3.60
2023-04-22T12:33:53.856Z,4.10
2023-04-22T12:36:21.161Z,3.63
2023-04-22T12:38:48.380Z,3.95
2023-04-22T12:41:18.618Z,4.15
2023-04-22T12:43:45.708Z,4.25
2023-04-22T12:46:12.875Z,3.50
2023-04-22T12:48:39.884Z,3.53
2023-04-22T12:51:07.332Z,3.20
2023-04-22T12:53:34.574Z,3.42
2023-04-22T12:56:01.858Z,3.58
2023-04-22T12:58:29.005Z,3.85
2023-04-22T13:00:56.190Z,3.63
2023-04-22T13:03:23.535Z,3.33
2023-04-22T13:05:51.271Z,3.30
2023-04-22T13:08:18.587Z,3.35
2023-04-22T13:10:45.769Z,3.55
2023-04-22T13:15:42.949Z,3.45
2023-04-22T13:18:10.164Z,3.30
2023-04-22T13:20:37.390Z,3.53
2023-04-22T13:23:04.977Z,3.63
2023-04-22T13:25:32.766Z,3.60
2023-04-22T13:27:59.813Z,3.88
2023-04-22T13:30:27.051Z,3.55
2023-04-22T13:32:54.182Z,3.20
2023-04-22T13:35:21.396Z,3.30
2023-04-22T13:37:48.440Z,2.90
2023-04-22T13:40:15.639Z,3.03
2023-04-22T13:42:44.524Z,2.58
2023-04-22T13:45:11.788Z,3.40
2023-04-22T13:47:38.866Z,3.05
2023-04-22T13:50:06.694Z,2.88
2023-04-22T13:52:34.182Z,3.17
2023-04-22T13:55:03.522Z,2.83
2023-04-22T13:57:30.720Z,3.05
2023-04-22T13:59:57.886Z,2.67
2023-04-22T14:02:25.161Z,2.60
2023-04-22T14:04:52.456Z,2.35
2023-04-22T14:07:19.519Z,2.20
2023-04-22T14:09:46.700Z,2.33
2023-04-22T14:12:14.141Z,2.30
2023-04-22T14:14:41.263Z,1.60
2023-04-22T14:17:08.707Z,1.45
2023-04-22T14:19:39.601Z,1.80
2023-04-22T14:22:06.952Z,1.55
2023-04-22T14:24:34.179Z,2.72
2023-04-22T14:27:04.569Z,1.77
2023-04-22T14:29:32.062Z,1.85
2023-04-22T14:31:59.565Z,2.10
2023-04-22T14:34:27.490Z,1.90
2023-04-22T14:36:54.814Z,2.00
2023-04-22T14:39:22.251Z,2.20
2023-04-22T14:41:49.699Z,2.70
2023-04-22T14:44:16.953Z,2.40
2023-04-22T14:46:43.946Z,1.90
2023-04-22T14:49:11.352Z,2.30
2023-04-22T14:51:38.464Z,3.45
2023-04-22T14:54:05.720Z,2.17
2023-04-22T14:56:32.910Z,2.38
2023-04-22T14:58:59.913Z,2.30
2023-04-22T15:01:27.246Z,2.80
2023-04-22T15:03:54.474Z,2.65
2023-04-22T15:06:23.063Z,2.53
2023-04-22T15:08:51.920Z,2.03
2023-04-22T15:11:19.142Z,2.30
2023-04-22T15:13:46.332Z,3.33
2023-04-22T15:16:13.653Z,2.08
2023-04-22T15:18:40.881Z,2.55
2023-04-22T15:21:10.348Z,2.40
2023-04-22T15:23:37.551Z,2.50
2023-04-22T15:26:04.835Z,2.50
2023-04-22T15:28:32.019Z,2.55
2023-04-22T15:30:59.245Z,3.70
2023-04-22T15:33:26.376Z,2.97
2023-04-22T15:35:53.433Z,3.17
2023-04-22T15:38:20.575Z,3.25
2023-04-22T15:40:47.814Z,3.20
2023-04-22T15:43:14.828Z,2.30
2023-04-22T15:45:42.110Z,2.92
2023-04-22T15:48:10.080Z,2.72
2023-04-22T15:50:38.875Z,2.75
2023-04-22T15:53:07.178Z,2.88
2023-04-22T15:55:34.267Z,2.95
2023-04-22T15:58:02.785Z,2.60
2023-04-22T16:00:30.087Z,2.72
2023-04-22T16:02:57.391Z,2.80
2023-04-22T16:05:25.308Z,3.35
2023-04-22T16:07:54.228Z,2.90
2023-04-22T16:10:21.699Z,3.05
2023-04-22T16:12:49.126Z,3.20
2023-04-22T16:15:16.846Z,3.30
2023-04-22T16:17:44.396Z,3.42
2023-04-22T16:20:11.941Z,2.92
2023-04-22T16:22:39.927Z,2.55
2023-04-22T16:25:08.088Z,3.25
2023-04-22T16:27:35.300Z,3.05
2023-04-22T16:30:02.384Z,2.60
2023-04-22T16:32:29.432Z,3.05
2023-04-22T16:34:56.581Z,3.53
2023-04-22T16:37:23.582Z,3.08
2023-04-22T16:39:51.550Z,2.90
2023-04-22T16:42:18.888Z,2.50
2023-04-22T16:44:46.033Z,3.38
2023-04-22T16:47:13.098Z,2.50
2023-04-22T16:49:40.255Z,3.03
2023-04-22T16:52:07.588Z,3.17
2023-04-22T16:54:34.628Z,2.70
2023-04-22T16:57:02.980Z,2.90
2023-04-22T16:59:30.072Z,2.67
2023-04-22T17:01:57.515Z,2.22
2023-04-22T17:04:24.681Z,2.75
2023-04-22T17:06:52.179Z,3.25
2023-04-22T17:09:19.806Z,3.33
2023-04-22T17:11:46.876Z,3.03
2023-04-22T17:14:14.480Z,3.15
2023-04-22T17:16:41.552Z,4.00
2023-04-22T17:19:08.630Z,3.40
2023-04-22T17:21:36.244Z,3.30
2023-04-22T17:24:04.902Z,3.25
2023-04-22T17:26:33.642Z,3.35
2023-04-22T17:29:00.818Z,3.45
2023-04-22T17:31:28.446Z,3.72
2023-04-22T17:33:55.715Z,3.63
2023-04-22T17:36:22.983Z,3.22
2023-04-22T17:38:50.031Z,3.47
2023-04-22T17:41:18.707Z,3.13
2023-04-22T17:43:45.929Z,3.20
2023-04-22T17:46:13.209Z,2.90
2023-04-22T17:48:41.206Z,2.60
2023-04-22T17:51:10.367Z,2.63
2023-04-22T17:53:37.651Z,3.20
2023-04-22T17:56:04.831Z,3.55
2023-04-22T18:01:12.246Z,3.45
2023-04-22T18:03:39.512Z,3.55
2023-04-22T18:06:07.113Z,2.90
2023-04-22T18:08:34.269Z,2.65
2023-04-22T18:11:03.368Z,2.88
2023-04-22T18:13:30.860Z,2.97
2023-04-22T18:15:58.040Z,3.10
2023-04-22T18:18:25.265Z,3.10
2023-04-22T18:20:53.038Z,3.17
2023-04-22T18:23:20.125Z,3.03
2023-04-22T18:25:48.179Z,3.30
2023-04-22T18:28:16.286Z,3.58
2023-04-22T18:30:44.409Z,4.43
2023-04-22T18:33:14.295Z,4.00
2023-04-22T18:35:42.212Z,4.43
2023-04-22T18:38:09.232Z,3.55
2023-04-22T18:40:39.165Z,3.17
2023-04-22T18:43:06.382Z,3.05
2023-04-22T18:45:33.507Z,4.30
2023-04-22T18:48:00.774Z,3.83
2023-04-22T18:50:27.872Z,3.80
2023-04-22T18:52:55.059Z,4.22
2023-04-22T18:55:22.233Z,3.90
2023-04-22T18:57:49.442Z,6.00
2023-04-22T19:00:17.045Z,5.05
2023-04-22T19:02:46.042Z,5.18
2023-04-22T19:05:14.764Z,6.05
2023-04-22T19:07:44.488Z,5.35
2023-04-22T19:10:12.577Z,5.25
2023-04-22T19:12:39.663Z,5.22
2023-04-22T19:15:07.540Z,4.88
2023-04-22T19:17:36.309Z,5.25
2023-04-22T19:20:05.428Z,5.25
2023-04-22T19:22:32.660Z,4.50
2023-04-22T19:24:59.905Z,4.18
2023-04-22T19:27:27.130Z,4.72
2023-04-22T19:29:54.144Z,4.80
2023-04-22T19:32:21.397Z,4.32
2023-04-22T19:34:50.185Z,4.80
2023-04-22T19:37:17.386Z,4.38
2023-04-22T19:39:44.589Z,4.32
2023-04-22T19:42:11.780Z,4.03
2023-04-22T19:44:41.355Z,4.00
2023-04-22T19:47:08.761Z,4.15
2023-04-22T19:49:36.237Z,4.85
2023-04-22T19:52:03.587Z,4.32
2023-04-22T19:54:31.976Z,4.75
2023-04-22T19:56:59.339Z,4.80
2023-04-22T19:59:31.258Z,4.50
2023-04-22T20:01:58.656Z,5.22
2023-04-22T20:04:26.223Z,5.07
2023-04-22T20:06:55.340Z,5.20
2023-04-22T20:09:23.103Z,5.78
2023-04-22T20:11:50.528Z,6.30
2023-04-22T20:14:18.677Z,5.53
2023-04-22T20:16:46.572Z,5.50
2023-04-22T20:19:16.959Z,4.78
2023-04-22T20:21:45.751Z,4.95
2023-04-22T20:24:19.273Z,5.18
2023-04-22T20:26:50.036Z,5.00
2023-04-22T20:29:19.595Z,4.60
2023-04-22T20:31:46.907Z,4.82
2023-04-22T20:34:14.191Z,5.15
2023-04-22T20:36:41.396Z,5.53
2023-04-22T20:39:14.379Z,6.10
2023-04-22T20:41:41.995Z,4.75
2023-04-22T20:44:09.436Z,5.43
2023-04-22T20:46:38.555Z,5.43
2023-04-22T20:49:05.931Z,5.30
2023-04-22T20:51:33.128Z,5.53
2023-04-22T20:54:00.208Z,5.22
2023-04-22T20:56:27.696Z,5.20
2023-04-22T20:58:54.792Z,4.95
2023-04-22T21:01:22.268Z,5.68
2023-04-22T21:03:52.674Z,5.32
2023-04-22T21:06:21.336Z,5.18
2023-04-22T21:08:51.852Z,6.22
2023-04-22T21:11:19.163Z,6.15
2023-04-22T21:13:46.801Z,5.38
2023-04-22T21:16:18.191Z,5.90
2023-04-22T21:18:45.998Z,7.82
2023-04-22T21:21:16.242Z,7.88
2023-04-22T21:23:46.232Z,7.53
2023-04-22T21:26:15.030Z,8.05
2023-04-22T21:28:42.369Z,7.70
2023-04-22T21:31:09.738Z,7.35
2023-04-22T21:33:36.906Z,7.68
2023-04-22T21:36:04.503Z,7.75
2023-04-22T21:38:31.736Z,7.18
2023-04-22T21:40:58.914Z,7.78
2023-04-22T21:43:25.918Z,7.00
2023-04-22T21:45:53.121Z,7.28
2023-04-22T21:48:20.260Z,7.78
2023-04-22T21:50:47.479Z,7.07
2023-04-22T21:53:14.616Z,7.55
2023-04-22T21:55:41.807Z,6.78
2023-04-22T21:58:08.907Z,6.88
2023-04-22T22:00:36.277Z,7.28
2023-04-22T22:03:03.648Z,7.78
2023-04-22T22:05:31.044Z,7.68
2023-04-22T22:07:58.238Z,7.10
2023-04-22T22:10:25.406Z,7.53
2023-04-22T22:12:53.058Z,7.57
2023-04-22T22:15:20.518Z,7.57
2023-04-22T22:17:47.680Z,7.55
2023-04-22T22:20:20.532Z,6.80
2023-04-22T22:22:48.529Z,7.53
2023-04-22T22:25:16.756Z,7.28
2023-04-22T22:27:47.020Z,7.05
2023-04-22T22:30:15.814Z,7.80
2023-04-22T22:32:42.907Z,7.70
2023-04-22T22:35:10.361Z,7.53
2023-04-22T22:37:37.321Z,6.78
2023-04-22T22:40:04.988Z,7.53
2023-04-22T22:42:32.243Z,7.57
2023-04-22T22:44:59.374Z,7.43
2023-04-22T22:47:26.649Z,6.82
2023-04-22T22:49:53.697Z,7.90
2023-04-22T22:52:20.838Z,7.78
2023-04-22T22:54:48.866Z,7.78
2023-04-22T22:57:16.517Z,7.15
2023-04-22T22:59:43.732Z,7.65
2023-04-22T23:02:11.466Z,7.07
2023-04-22T23:04:39.482Z,7.40
2023-04-22T23:07:06.771Z,7.53
2023-04-22T23:09:33.871Z,7.07
2023-04-22T23:12:02.838Z,7.82
2023-04-22T23:14:30.238Z,6.90
2023-04-22T23:16:57.456Z,6.95
2023-04-22T23:19:25.903Z,6.93
2023-04-22T23:21:55.235Z,6.70
2023-04-22T23:24:22.719Z,6.65
2023-04-22T23:26:50.442Z,6.35
2023-04-22T23:29:18.993Z,6.18
2023-04-22T23:31:50.676Z,6.03
2023-04-22T23:34:21.726Z,5.68
2023-04-22T23:36:50.250Z,5.72
2023-04-22T23:39:17.307Z,5.72
2023-04-22T23:41:44.406Z,4.88
2023-04-22T23:44:11.909Z,5.15
2023-04-22T23:46:39.082Z,5.18
2023-04-22T23:49:07.327Z,4.95
2023-04-22T23:51:35.446Z,4.63
2023-04-22T23:54:02.467Z,4.30
2023-04-22T23:56:29.971Z,5.35
2023-04-22T23:58:57.610Z,4.30
